createdAt,value
2023-05-04T00:01:19.681Z,12.12
2023-05-04T00:04:23.333Z,12.08
2023-05-04T00:07:26.481Z,12.07
2023-05-04T00:10:31.731Z,12.07
2023-05-04T00:13:34.767Z,12.06
2023-05-04T00:16:37.994Z,12.07
2023-05-04T00:19:42.364Z,12.06
2023-05-04T00:22:45.608Z,12.04
2023-05-04T00:25:48.597Z,12.03
2023-05-04T00:28:51.864Z,12.01
2023-05-04T00:31:55.039Z,12.04
2023-05-04T00:35:00.140Z,12.04
2023-05-04T00:38:05.229Z,11.91
2023-05-04T00:41:08.706Z,11.92
2023-05-04T00:44:11.785Z,11.89
2023-05-04T00:47:19.797Z,11.97
2023-05-04T00:50:26.503Z,11.93
2023-05-04T00:53:30.091Z,12.05
2023-05-04T00:56:33.965Z,11.93
2023-05-04T00:59:37.094Z,11.93
2023-05-04T01:02:41.039Z,11.92
2023-05-04T01:05:56.116Z,11.90
2023-05-04T01:09:04.895Z,11.89
2023-05-04T01:12:15.601Z,11.90
2023-05-04T01:15:20.660Z,11.90
2023-05-04T01:18:23.818Z,11.84
2023-05-04T01:21:31.227Z,11.97
2023-05-04T01:24:34.259Z,11.98
2023-05-04T01:28:02.503Z,11.87
2023-05-04T01:31:09.772Z,11.95
2023-05-04T01:34:14.372Z,11.91
2023-05-04T01:37:17.556Z,11.95
2023-05-04T01:40:20.794Z,12.00
2023-05-04T01:43:24.264Z,12.00
2023-05-04T01:46:27.192Z,12.00
2023-05-04T01:49:30.614Z,11.93
2023-05-04T01:52:34.011Z,11.92
2023-05-04T01:55:36.970Z,11.94
2023-05-04T01:58:40.382Z,11.93
2023-05-04T02:01:43.940Z,11.90
2023-05-04T02:04:47.297Z,11.93
2023-05-04T02:07:50.411Z,11.83
2023-05-04T02:10:54.472Z,11.87
2023-05-04T02:13:57.708Z,11.86
2023-05-04T02:17:01.159Z,11.87
2023-05-04T02:20:05.308Z,11.91
2023-05-04T02:23:08.694Z,11.91
2023-05-04T02:26:11.876Z,11.88
2023-05-04T02:29:15.016Z,11.79
2023-05-04T02:32:18.310Z,11.80
2023-05-04T02:35:21.430Z,11.82
2023-05-04T02:38:24.741Z,11.67
2023-05-04T02:41:28.908Z,11.59
2023-05-04T02:44:32.075Z,11.54
2023-05-04T02:47:35.158Z,11.50
2023-05-04T02:50:39.593Z,11.43
2023-05-04T02:53:42.750Z,11.32
2023-05-04T02:56:45.867Z,11.28
2023-05-04T02:59:49.057Z,11.25
2023-05-04T03:02:52.449Z,11.18
2023-05-04T03:05:55.451Z,11.23
2023-05-04T03:12:16.736Z,11.06
2023-05-04T03:15:19.650Z,11.21
2023-05-04T03:18:23.100Z,11.16
2023-05-04T03:21:27.421Z,11.13
2023-05-04T03:24:31.057Z,11.05
2023-05-04T03:27:34.568Z,11.16
2023-05-04T03:30:39.720Z,11.17
2023-05-04T03:33:42.928Z,11.10
2023-05-04T03:36:46.148Z,10.99
2023-05-04T03:39:49.218Z,10.87
2023-05-04T03:42:53.250Z,10.88
2023-05-04T03:45:58.031Z,10.84
2023-05-04T03:49:01.249Z,10.83
2023-05-04T03:52:04.960Z,10.81
2023-05-04T03:55:08.570Z,10.88
2023-05-04T03:58:15.068Z,10.86
2023-05-04T04:01:18.775Z,10.83
2023-05-04T04:04:22.085Z,10.87
2023-05-04T04:07:25.743Z,10.77
2023-05-04T04:10:31.637Z,10.83
2023-05-04T04:13:35.377Z,10.76
2023-05-04T04:16:38.545Z,10.75
2023-05-04T04:19:42.547Z,10.70
2023-05-04T04:22:45.686Z,10.74
2023-05-04T04:25:49.168Z,10.77
2023-05-04T04:28:52.445Z,10.86
2023-05-04T04:31:56.122Z,10.91
2023-05-04T04:34:59.320Z,10.91
2023-05-04T04:38:03.912Z,10.93
2023-05-04T04:41:08.925Z,10.92
2023-05-04T04:44:12.097Z,10.99
2023-05-04T04:47:16.817Z,11.01
2023-05-04T04:50:19.957Z,11.01
2023-05-04T04:53:23.119Z,11.08
2023-05-04T04:56:26.603Z,11.15
2023-05-04T04:59:30.292Z,11.20
2023-05-04T05:02:33.944Z,11.26
2023-05-04T05:05:37.306Z,11.43
2023-05-04T05:08:40.970Z,11.53
2023-05-04T05:11:45.701Z,11.65
2023-05-04T05:14:50.911Z,11.72
2023-05-04T05:17:54.124Z,11.75
2023-05-04T05:20:58.014Z,11.90
2023-05-04T05:24:01.988Z,12.00
2023-05-04T05:27:05.046Z,11.98
2023-05-04T05:30:08.370Z,12.05
2023-05-04T05:33:11.664Z,12.13
2023-05-04T05:36:14.783Z,12.20
2023-05-04T05:39:18.268Z,12.29
2023-05-04T05:42:21.523Z,12.34
2023-05-04T05:45:25.025Z,12.46
2023-05-04T05:48:28.611Z,12.55
2023-05-04T05:51:32.454Z,12.60
2023-05-04T05:54:36.064Z,12.72
2023-05-04T05:57:39.485Z,12.85
2023-05-04T06:00:42.955Z,12.95
2023-05-04T06:03:46.504Z,13.07
2023-05-04T06:06:49.796Z,12.98
2023-05-04T06:09:53.131Z,13.16
2023-05-04T06:12:56.953Z,13.20
2023-05-04T06:16:00.326Z,13.23
2023-05-04T06:19:06.897Z,13.36
2023-05-04T06:22:10.157Z,13.44
2023-05-04T06:25:13.536Z,13.53
2023-05-04T06:28:16.662Z,13.55
2023-05-04T06:31:20.133Z,13.68
2023-05-04T06:34:23.570Z,13.77
2023-05-04T06:37:26.900Z,13.88
2023-05-04T06:40:32.667Z,13.91
2023-05-04T06:43:36.262Z,14.05
2023-05-04T06:46:40.617Z,14.11
2023-05-04T06:49:44.088Z,14.25
2023-05-04T06:52:47.756Z,14.25
2023-05-04T06:55:51.523Z,14.46
2023-05-04T06:58:55.974Z,14.46
2023-05-04T07:02:00.123Z,14.48
2023-05-04T07:05:04.088Z,14.64
2023-05-04T07:08:09.760Z,14.65
2023-05-04T07:11:13.191Z,14.64
2023-05-04T07:14:16.689Z,14.74
2023-05-04T07:17:22.122Z,14.77
2023-05-04T07:20:26.517Z,14.93
2023-05-04T07:23:29.767Z,14.85
2023-05-04T07:26:32.877Z,14.95
2023-05-04T07:29:36.068Z,15.10
2023-05-04T07:32:39.264Z,15.28
2023-05-04T07:35:42.883Z,15.22
2023-05-04T07:38:46.969Z,15.29
2023-05-04T07:41:52.075Z,15.30
2023-05-04T07:44:55.817Z,15.49
2023-05-04T07:48:02.248Z,15.62
2023-05-04T07:51:06.176Z,15.82
2023-05-04T07:54:09.489Z,15.93
2023-05-04T07:57:12.835Z,16.04
2023-05-04T08:00:17.697Z,16.28
2023-05-04T08:03:24.423Z,16.43
2023-05-04T08:06:28.019Z,16.34
2023-05-04T08:09:31.427Z,16.45
2023-05-04T08:12:35.001Z,16.50
2023-05-04T08:15:38.219Z,16.51
2023-05-04T08:18:41.488Z,16.72
2023-05-04T08:21:45.112Z,16.75
2023-05-04T08:24:48.480Z,16.83
2023-05-04T08:27:53.233Z,16.92
2023-05-04T08:30:57.554Z,16.94
2023-05-04T08:34:01.332Z,17.09
2023-05-04T08:37:05.205Z,17.20
2023-05-04T08:40:09.296Z,17.27
2023-05-04T08:43:14.102Z,17.42
2023-05-04T08:46:18.040Z,17.84
2023-05-04T08:49:22.800Z,18.09
2023-05-04T08:52:27.590Z,18.23
2023-05-04T08:55:33.531Z,18.19
2023-05-04T08:58:38.316Z,18.52
2023-05-04T09:01:42.044Z,18.53
2023-05-04T09:04:45.731Z,18.85
2023-05-04T09:07:51.135Z,18.96
2023-05-04T09:10:54.947Z,19.12
2023-05-04T09:13:58.395Z,19.03
2023-05-04T09:17:03.103Z,18.81
2023-05-04T09:20:07.824Z,18.50
2023-05-04T09:23:14.490Z,18.38
2023-05-04T09:26:46.674Z,18.86
2023-05-04T09:29:54.864Z,19.25
2023-05-04T09:32:58.682Z,19.35
2023-05-04T09:36:15.152Z,19.40
2023-05-04T09:39:18.116Z,19.44
2023-05-04T09:42:24.684Z,19.19
2023-05-04T09:45:47.948Z,18.95
2023-05-04T09:48:59.054Z,18.93
2023-05-04T09:52:06.456Z,19.11
2023-05-04T09:55:13.806Z,19.42
2023-05-04T09:58:24.023Z,19.49
2023-05-04T10:01:31.176Z,19.66
2023-05-04T10:04:37.123Z,19.68
2023-05-04T10:07:41.619Z,19.85
2023-05-04T10:10:45.925Z,20.27
2023-05-04T10:13:49.443Z,20.63
2023-05-04T10:17:25.403Z,20.54
2023-05-04T10:21:02.847Z,20.65
2023-05-04T10:24:27.461Z,20.43
2023-05-04T10:27:42.158Z,20.16
2023-05-04T10:30:45.352Z,20.71
2023-05-04T10:33:48.871Z,20.77
2023-05-04T10:36:52.175Z,20.93
2023-05-04T10:39:55.373Z,21.44
2023-05-04T10:42:58.528Z,21.22
2023-05-04T10:46:02.551Z,20.65
2023-05-04T10:49:16.584Z,20.38
2023-05-04T10:52:19.856Z,20.78
2023-05-04T10:55:23.989Z,21.17
2023-05-04T10:58:30.651Z,21.28
2023-05-04T11:01:42.923Z,21.81
2023-05-04T11:04:45.995Z,22.17
2023-05-04T11:07:53.500Z,22.26
2023-05-04T11:11:07.037Z,22.58
2023-05-04T11:14:11.312Z,22.73
2023-05-04T11:20:24.615Z,22.59
2023-05-04T11:23:28.430Z,22.90
2023-05-04T11:26:31.577Z,22.51
2023-05-04T11:29:35.236Z,22.46
2023-05-04T11:32:50.519Z,22.80
2023-05-04T11:36:01.502Z,22.72
2023-05-04T11:39:06.671Z,22.89
2023-05-04T11:42:10.144Z,22.67
2023-05-04T11:45:20.014Z,22.60
2023-05-04T11:48:23.468Z,22.63
2023-05-04T11:51:30.028Z,22.64
2023-05-04T11:54:33.489Z,22.53
2023-05-04T11:57:37.911Z,22.30
2023-05-04T12:00:47.426Z,22.06
2023-05-04T12:03:54.997Z,21.83
2023-05-04T12:06:59.601Z,22.12
2023-05-04T12:10:05.345Z,22.23
2023-05-04T12:13:18.083Z,21.94
2023-05-04T12:16:21.523Z,22.22
2023-05-04T12:19:25.299Z,22.46
2023-05-04T12:22:33.266Z,22.58
2023-05-04T12:25:44.194Z,22.21
2023-05-04T12:28:55.226Z,22.31
2023-05-04T12:31:58.822Z,22.14
2023-05-04T12:35:02.218Z,21.92
2023-05-04T12:38:06.414Z,21.57
2023-05-04T12:41:11.081Z,21.89
2023-05-04T12:44:14.498Z,21.95
2023-05-04T12:47:17.899Z,21.88
2023-05-04T12:50:21.040Z,21.11
2023-05-04T12:53:27.937Z,20.63
2023-05-04T12:56:30.736Z,20.11
2023-05-04T12:59:33.599Z,20.28
2023-05-04T13:02:37.720Z,20.18
2023-05-04T13:05:40.719Z,20.33
2023-05-04T13:08:44.619Z,20.76
2023-05-04T13:11:49.830Z,20.34
2023-05-04T13:14:55.535Z,20.09
2023-05-04T13:17:59.209Z,20.15
2023-05-04T13:21:04.236Z,20.28
2023-05-04T13:24:07.546Z,20.59
2023-05-04T13:27:10.762Z,20.62
2023-05-04T13:30:15.340Z,20.59
2023-05-04T13:33:28.948Z,20.50
2023-05-04T13:36:33.556Z,20.63
2023-05-04T13:39:42.387Z,20.73
2023-05-04T13:42:45.803Z,20.79
2023-05-04T13:45:50.250Z,20.52
2023-05-04T13:48:55.171Z,20.57
2023-05-04T13:52:00.108Z,20.28
2023-05-04T13:55:03.679Z,20.19
2023-05-04T13:58:07.417Z,20.32
2023-05-04T14:01:11.613Z,20.26
2023-05-04T14:04:14.626Z,20.35
2023-05-04T14:07:17.697Z,20.48
2023-05-04T14:10:22.452Z,20.17
2023-05-04T14:13:25.589Z,19.80
2023-05-04T14:16:28.422Z,19.64
2023-05-04T14:19:32.054Z,19.59
2023-05-04T14:22:38.020Z,19.48
2023-05-04T14:25:42.409Z,19.48
2023-05-04T14:28:45.574Z,19.30
2023-05-04T14:31:49.004Z,19.13
2023-05-04T14:34:52.081Z,19.16
2023-05-04T14:37:55.198Z,19.16
2023-05-04T14:40:58.918Z,19.28
2023-05-04T14:44:02.148Z,19.37
2023-05-04T14:47:06.857Z,19.61
2023-05-04T14:50:11.394Z,19.40
2023-05-04T14:53:17.468Z,19.33
2023-05-04T14:56:21.172Z,19.27
2023-05-04T14:59:24.346Z,19.29
2023-05-04T15:02:27.821Z,19.35
2023-05-04T15:05:31.105Z,19.38
2023-05-04T15:08:34.296Z,19.34
2023-05-04T15:11:37.272Z,19.37
2023-05-04T15:14:40.452Z,19.33
2023-05-04T15:17:44.365Z,19.15
2023-05-04T15:20:50.396Z,19.05
2023-05-04T15:23:56.911Z,18.95
2023-05-04T15:27:00.029Z,18.80
2023-05-04T15:30:03.842Z,18.81
2023-05-04T15:33:09.677Z,18.82
2023-05-04T15:36:12.932Z,18.78
2023-05-04T15:39:16.300Z,18.91
2023-05-04T15:42:19.678Z,18.80
2023-05-04T15:45:23.154Z,18.74
2023-05-04T15:48:27.854Z,18.75
2023-05-04T15:51:32.254Z,18.79
2023-05-04T15:54:35.710Z,18.81
2023-05-04T15:57:39.084Z,19.00
2023-05-04T16:00:44.728Z,18.99
2023-05-04T16:03:47.936Z,19.00
2023-05-04T16:06:51.063Z,19.00
2023-05-04T16:09:54.374Z,18.99
2023-05-04T16:13:00.723Z,18.96
2023-05-04T16:16:04.730Z,19.02
2023-05-04T16:19:10.107Z,18.95
2023-05-04T16:22:14.401Z,18.90
2023-05-04T16:25:17.732Z,18.94
2023-05-04T16:28:21.333Z,18.86
2023-05-04T16:31:24.970Z,18.86
2023-05-04T16:34:28.144Z,18.73
2023-05-04T16:37:31.298Z,18.59
2023-05-04T16:40:34.697Z,18.57
2023-05-04T16:43:37.687Z,18.43
2023-05-04T16:46:40.779Z,18.38
2023-05-04T16:49:44.046Z,18.31
2023-05-04T16:52:47.052Z,18.31
2023-05-04T16:55:51.089Z,18.22
2023-05-04T16:58:59.489Z,18.15
2023-05-04T17:02:02.955Z,18.06
2023-05-04T17:05:10.580Z,18.00
2023-05-04T17:08:13.937Z,17.94
2023-05-04T17:11:17.345Z,17.90
2023-05-04T17:14:20.768Z,17.82
2023-05-04T17:17:23.742Z,17.72
2023-05-04T17:20:31.948Z,17.60
2023-05-04T17:23:35.331Z,17.50
2023-05-04T17:26:38.407Z,17.37
2023-05-04T17:29:41.800Z,17.29
2023-05-04T17:32:45.144Z,17.14
2023-05-04T17:35:49.643Z,17.13
2023-05-04T17:38:53.200Z,17.01
2023-05-04T17:41:56.517Z,16.92
2023-05-04T17:44:59.735Z,16.82
2023-05-04T17:48:03.166Z,16.71
2023-05-04T17:51:09.619Z,16.61
2023-05-04T17:54:12.915Z,16.51
2023-05-04T17:57:16.859Z,16.44
2023-05-04T18:00:22.707Z,16.32
2023-05-04T18:03:26.056Z,16.26
2023-05-04T18:06:29.375Z,16.13
2023-05-04T18:09:32.892Z,16.06
2023-05-04T18:12:38.171Z,16.02
2023-05-04T18:15:41.663Z,15.93
2023-05-04T18:18:47.734Z,15.83
2023-05-04T18:21:51.757Z,15.76
2023-05-04T18:24:55.073Z,15.69
2023-05-04T18:27:58.897Z,15.58
2023-05-04T18:31:03.339Z,15.51
2023-05-04T18:34:07.076Z,15.48
2023-05-04T18:37:10.291Z,15.33
2023-05-04T18:40:13.875Z,15.33
2023-05-04T18:43:16.944Z,15.21
2023-05-04T18:46:19.851Z,15.07
2023-05-04T18:49:22.829Z,14.94
2023-05-04T18:52:25.904Z,14.92
2023-05-04T18:55:29.130Z,14.88
2023-05-04T18:58:32.660Z,14.77
2023-05-04T19:01:40.297Z,14.68
2023-05-04T19:04:46.540Z,14.69
2023-05-04T19:07:49.810Z,14.68
2023-05-04T19:10:57.718Z,14.53
2023-05-04T19:14:00.827Z,14.55
2023-05-04T19:17:05.495Z,14.54
2023-05-04T19:20:09.532Z,14.39
2023-05-04T19:23:14.292Z,14.30
2023-05-04T19:26:17.329Z,14.19
2023-05-04T19:29:21.264Z,14.15
2023-05-04T19:32:25.692Z,14.13
2023-05-04T19:35:29.168Z,14.06
2023-05-04T19:38:32.268Z,14.03
2023-05-04T19:41:36.685Z,13.95
2023-05-04T19:44:39.776Z,13.87
2023-05-04T19:47:42.748Z,13.87
2023-05-04T19:50:47.517Z,13.72
2023-05-04T19:53:50.481Z,13.70
2023-05-04T19:56:53.772Z,13.63
2023-05-04T19:59:57.588Z,13.51
2023-05-04T20:03:01.285Z,13.52
2023-05-04T20:06:04.652Z,13.47
2023-05-04T20:09:07.820Z,13.44
2023-05-04T20:12:11.479Z,13.36
2023-05-04T20:15:14.738Z,13.42
2023-05-04T20:18:18.317Z,13.34
2023-05-04T20:21:21.535Z,13.31
2023-05-04T20:24:25.803Z,13.24
2023-05-04T20:27:28.945Z,13.24
2023-05-04T20:30:32.914Z,13.12
2023-05-04T20:33:36.260Z,13.06
2023-05-04T20:36:39.543Z,13.11
2023-05-04T20:39:42.527Z,13.03
2023-05-04T20:42:45.557Z,13.01
2023-05-04T20:45:51.315Z,12.99
2023-05-04T20:48:54.875Z,12.89
2023-05-04T20:51:58.371Z,12.89
2023-05-04T20:55:01.539Z,12.94
2023-05-04T20:58:04.657Z,12.84
2023-05-04T21:01:36.889Z,12.73
2023-05-04T21:04:40.048Z,12.80
2023-05-04T21:07:43.073Z,12.69
2023-05-04T21:10:48.866Z,12.70
2023-05-04T21:13:52.024Z,12.55
2023-05-04T21:16:55.384Z,12.52
2023-05-04T21:19:58.397Z,12.53
2023-05-04T21:23:01.574Z,12.43
2023-05-04T21:26:05.308Z,12.43
2023-05-04T21:29:15.113Z,12.34
2023-05-04T21:32:18.301Z,12.29
2023-05-04T21:35:22.106Z,12.19
2023-05-04T21:38:25.305Z,12.15
2023-05-04T21:41:28.678Z,12.20
2023-05-04T21:44:31.741Z,12.20
2023-05-04T21:47:36.367Z,12.15
2023-05-04T21:50:42.684Z,12.14
2023-05-04T21:53:46.640Z,12.08
2023-05-04T21:56:49.506Z,12.08
2023-05-04T21:59:52.498Z,12.01
2023-05-04T22:02:55.541Z,11.90
2023-05-04T22:05:59.069Z,11.80
2023-05-04T22:09:02.661Z,11.73
2023-05-04T22:12:06.274Z,11.67
2023-05-04T22:15:10.331Z,11.66
2023-05-04T22:18:13.687Z,11.65
2023-05-04T22:21:17.660Z,11.52
2023-05-04T22:24:21.102Z,11.44
2023-05-04T22:27:24.400Z,11.46
2023-05-04T22:30:28.357Z,11.43
2023-05-04T22:33:32.011Z,11.45
2023-05-04T22:36:35.027Z,11.54
2023-05-04T22:39:38.871Z,11.55
2023-05-04T22:42:45.050Z,11.54
2023-05-04T22:45:48.276Z,11.45
2023-05-04T22:48:54.122Z,11.34
2023-05-04T22:51:57.140Z,11.34
2023-05-04T22:55:00.505Z,11.33
2023-05-04T22:58:03.539Z,11.34
2023-05-04T23:01:13.208Z,11.32
2023-05-04T23:07:34.481Z,11.22
2023-05-04T23:10:37.825Z,11.17
2023-05-04T23:13:40.788Z,11.17
2023-05-04T23:16:44.194Z,11.10
2023-05-04T23:19:47.423Z,11.03
2023-05-04T23:22:51.211Z,11.04
2023-05-04T23:25:54.220Z,11.02
2023-05-04T23:28:57.444Z,11.10
2023-05-04T23:32:00.665Z,11.06
2023-05-04T23:35:04.142Z,11.05
2023-05-04T23:38:07.406Z,11.01
2023-05-04T23:41:10.548Z,10.99
2023-05-04T23:44:14.201Z,10.99
2023-05-04T23:47:17.441Z,11.02
2023-05-04T23:50:26.929Z,10.98
2023-05-04T23:53:32.092Z,10.87
2023-05-04T23:56:37.851Z,10.87
2023-05-04T23:59:42.182Z,10.88
